createdAt,value
2019-03-16T00:02:24.905Z,67.17
2019-03-16T00:04:51.231Z,66.87
2019-03-16T00:07:17.340Z,67.26
2019-03-16T00:09:43.583Z,67.71
2019-03-16T00:12:09.671Z,67.63
2019-03-16T00:14:35.792Z,66.45
2019-03-16T00:17:02.054Z,66.55
2019-03-16T00:19:28.411Z,66.99
2019-03-16T00:21:54.743Z,66.41
2019-03-16T00:24:20.854Z,65.46
2019-03-16T00:26:47.202Z,65.44
2019-03-16T00:29:13.604Z,65.25
2019-03-16T00:31:39.867Z,66.05
2019-03-16T00:34:06.176Z,66.18
2019-03-16T00:36:32.327Z,65.46
2019-03-16T00:38:58.567Z,64.92
2019-03-16T00:41:24.899Z,65.25
2019-03-16T00:43:51.307Z,65.19
2019-03-16T00:46:17.600Z,65.19
2019-03-16T00:48:44.009Z,65.40
2019-03-16T00:51:10.150Z,65.01
2019-03-16T00:53:36.645Z,65.43
2019-03-16T00:56:03.203Z,65.21
2019-03-16T00:58:29.419Z,65.27
2019-03-16T01:00:55.531Z,65.79
2019-03-16T01:03:21.777Z,65.53
2019-03-16T01:05:47.955Z,65.55
2019-03-16T01:08:14.169Z,65.57
2019-03-16T01:10:40.348Z,66.24
2019-03-16T01:13:06.713Z,66.60
2019-03-16T01:15:33.024Z,65.20
2019-03-16T01:17:59.208Z,65.96
2019-03-16T01:20:25.608Z,65.34
2019-03-16T01:22:51.841Z,64.49
2019-03-16T01:25:18.055Z,65.37
2019-03-16T01:27:44.422Z,66.00
2019-03-16T01:30:15.127Z,65.95
2019-03-16T01:32:41.632Z,65.49
2019-03-16T01:35:08.057Z,65.60
2019-03-16T01:37:34.163Z,66.14
2019-03-16T01:40:00.385Z,66.55
2019-03-16T01:42:26.643Z,65.87
2019-03-16T01:44:52.875Z,66.14
2019-03-16T01:47:19.029Z,65.74
2019-03-16T01:49:45.199Z,65.95
2019-03-16T01:52:11.293Z,65.52
2019-03-16T01:54:37.534Z,65.82
2019-03-16T01:57:03.663Z,65.70
2019-03-16T01:59:29.817Z,66.33
2019-03-16T02:01:55.914Z,66.20
2019-03-16T02:04:22.253Z,66.01
2019-03-16T02:06:48.413Z,66.33
2019-03-16T02:09:14.659Z,65.94
2019-03-16T02:11:40.918Z,65.55
2019-03-16T02:14:07.221Z,65.60
2019-03-16T02:16:33.638Z,65.83
2019-03-16T02:19:00.842Z,66.16
2019-03-16T02:21:27.037Z,65.72
2019-03-16T02:23:53.142Z,66.00
2019-03-16T02:26:19.319Z,65.99
2019-03-16T02:28:45.440Z,65.57
2019-03-16T02:31:11.544Z,66.02
2019-03-16T02:33:37.695Z,66.09
2019-03-16T02:36:03.910Z,66.86
2019-03-16T02:38:30.215Z,66.93
2019-03-16T02:40:56.486Z,67.11
2019-03-16T02:43:22.603Z,66.87
2019-03-16T02:45:48.861Z,66.85
2019-03-16T02:48:14.958Z,66.31
2019-03-16T02:50:41.087Z,66.58
2019-03-16T02:53:07.217Z,66.45
2019-03-16T02:55:33.417Z,66.89
2019-03-16T02:57:59.590Z,67.52
2019-03-16T03:00:25.768Z,67.81
2019-03-16T03:02:51.952Z,66.81
2019-03-16T03:05:18.048Z,67.10
2019-03-16T03:07:44.168Z,67.01
2019-03-16T03:10:14.266Z,67.08
2019-03-16T03:12:40.591Z,67.33
2019-03-16T03:15:07.806Z,68.18
2019-03-16T03:17:34.123Z,68.32
2019-03-16T03:20:00.482Z,68.73
2019-03-16T03:22:26.600Z,69.05
2019-03-16T03:24:52.694Z,69.37
2019-03-16T03:27:18.979Z,68.94
2019-03-16T03:29:45.090Z,69.40
2019-03-16T03:32:11.300Z,69.15
2019-03-16T03:34:38.527Z,68.70
2019-03-16T03:37:04.647Z,68.59
2019-03-16T03:39:30.766Z,68.53
2019-03-16T03:41:57.001Z,68.20
2019-03-16T03:44:23.097Z,68.66
2019-03-16T03:46:49.290Z,68.78
2019-03-16T03:49:15.399Z,69.25
2019-03-16T03:51:41.712Z,69.32
2019-03-16T03:54:07.904Z,69.67
2019-03-16T03:56:34.048Z,69.26
2019-03-16T03:59:00.235Z,69.67
2019-03-16T04:01:26.460Z,69.13
2019-03-16T04:03:52.773Z,68.80
2019-03-16T04:06:18.988Z,68.33
2019-03-16T04:08:45.215Z,68.84
2019-03-16T04:11:11.405Z,68.91
2019-03-16T04:13:37.664Z,68.15
2019-03-16T04:16:03.944Z,68.48
2019-03-16T04:18:30.278Z,68.60
2019-03-16T04:20:56.412Z,68.96
2019-03-16T04:23:22.716Z,69.42
2019-03-16T04:25:48.822Z,70.19
2019-03-16T04:28:14.929Z,68.85
2019-03-16T04:30:41.167Z,68.61
2019-03-16T04:33:07.381Z,63.68
2019-03-16T04:35:36.092Z,64.66
2019-03-16T04:38:02.309Z,66.40
2019-03-16T04:40:28.424Z,67.73
2019-03-16T04:42:54.548Z,63.42
2019-03-16T04:45:20.772Z,65.22
2019-03-16T04:47:47.143Z,62.24
2019-03-16T04:50:13.631Z,64.42
2019-03-16T04:52:39.836Z,61.93
2019-03-16T04:55:08.833Z,63.16
2019-03-16T04:57:35.002Z,64.84
2019-03-16T05:00:02.199Z,64.51
2019-03-16T05:02:28.452Z,63.35
2019-03-16T05:04:54.585Z,63.64
2019-03-16T05:07:20.815Z,64.05
2019-03-16T05:09:46.973Z,65.49
2019-03-16T05:12:13.184Z,66.68
2019-03-16T05:14:39.291Z,66.84
2019-03-16T05:17:05.481Z,66.45
2019-03-16T05:19:31.602Z,68.62
2019-03-16T05:21:58.817Z,69.58
2019-03-16T05:24:25.032Z,68.13
2019-03-16T05:26:51.207Z,69.56
2019-03-16T05:29:17.981Z,69.72
2019-03-16T05:31:44.325Z,69.68
2019-03-16T05:34:10.563Z,70.00
2019-03-16T05:36:36.689Z,72.02
2019-03-16T05:39:05.136Z,72.01
2019-03-16T05:41:31.215Z,71.73
2019-03-16T05:43:57.443Z,71.11
2019-03-16T05:46:23.648Z,71.42
2019-03-16T05:48:49.833Z,72.53
2019-03-16T05:51:16.124Z,71.83
2019-03-16T05:53:42.273Z,73.24
2019-03-16T05:56:08.454Z,74.41
2019-03-16T05:58:34.668Z,74.57
2019-03-16T06:01:01.574Z,73.33
2019-03-16T06:03:27.921Z,74.53
2019-03-16T06:05:54.022Z,73.34
2019-03-16T06:08:20.273Z,73.57
2019-03-16T06:10:46.495Z,75.14
2019-03-16T06:13:12.835Z,76.04
2019-03-16T06:15:38.999Z,75.84
2019-03-16T06:18:06.467Z,77.06
2019-03-16T06:20:32.597Z,77.47
2019-03-16T06:22:58.732Z,77.50
2019-03-16T06:25:24.916Z,77.85
2019-03-16T06:27:51.035Z,76.58
2019-03-16T06:30:20.582Z,76.89
2019-03-16T06:32:45.284Z,77.33
2019-03-16T06:35:24.057Z,77.46
2019-03-16T06:37:39.763Z,77.89
2019-03-16T06:40:07.698Z,78.00
2019-03-16T06:42:33.927Z,77.96
2019-03-16T06:45:00.054Z,78.50
2019-03-16T06:47:26.186Z,77.96
2019-03-16T06:49:52.513Z,77.81
2019-03-16T06:52:18.689Z,78.90
2019-03-16T06:54:44.846Z,77.96
2019-03-16T06:57:11.140Z,77.15
2019-03-16T06:59:37.236Z,79.11
2019-03-16T07:02:03.658Z,79.37
2019-03-16T07:04:29.842Z,78.30
2019-03-16T07:06:55.970Z,79.27
2019-03-16T07:09:22.336Z,79.10
2019-03-16T07:11:48.579Z,77.51
2019-03-16T07:14:14.926Z,78.19
2019-03-16T07:16:41.261Z,79.52
2019-03-16T07:19:07.351Z,79.84
2019-03-16T07:21:33.636Z,79.11
2019-03-16T07:23:59.837Z,77.27
2019-03-16T07:26:26.036Z,76.58
2019-03-16T07:28:52.253Z,76.64
2019-03-16T07:31:19.599Z,76.50
2019-03-16T07:33:45.807Z,78.04
2019-03-16T07:36:12.139Z,78.97
2019-03-16T07:38:38.374Z,79.52
2019-03-16T07:41:04.841Z,80.08
2019-03-16T07:43:31.225Z,80.59
2019-03-16T07:45:57.560Z,79.98
2019-03-16T07:48:23.718Z,80.30
2019-03-16T07:50:49.976Z,80.21
2019-03-16T07:53:16.300Z,80.15
2019-03-16T07:55:42.494Z,80.16
2019-03-16T07:58:08.624Z,80.82
2019-03-16T08:00:34.906Z,80.74
2019-03-16T08:03:01.219Z,80.49
2019-03-16T08:05:28.515Z,81.04
2019-03-16T08:07:55.020Z,81.19
2019-03-16T08:10:21.241Z,81.23
2019-03-16T08:12:47.567Z,81.43
2019-03-16T08:15:13.865Z,81.84
2019-03-16T08:17:40.034Z,82.24
2019-03-16T08:20:07.784Z,82.45
2019-03-16T08:22:33.913Z,82.44
2019-03-16T08:25:00.150Z,82.64
2019-03-16T08:27:26.258Z,82.81
2019-03-16T08:29:52.400Z,83.13
2019-03-16T08:32:18.742Z,83.44
2019-03-16T08:34:45.030Z,83.71
2019-03-16T08:37:11.374Z,83.76
2019-03-16T08:39:39.054Z,83.90
2019-03-16T08:42:05.159Z,83.94
2019-03-16T08:44:31.434Z,84.09
2019-03-16T08:46:57.674Z,84.13
2019-03-16T08:49:23.775Z,84.22
2019-03-16T08:51:50.229Z,84.34
2019-03-16T08:54:16.507Z,84.44
2019-03-16T08:56:42.599Z,84.43
2019-03-16T08:59:08.780Z,84.39
2019-03-16T09:01:34.941Z,84.35
2019-03-16T09:04:01.253Z,84.49
2019-03-16T09:06:27.578Z,84.42
2019-03-16T09:08:54.005Z,84.42
2019-03-16T09:11:20.248Z,84.43
2019-03-16T09:13:46.368Z,84.45
2019-03-16T09:16:12.686Z,84.45
2019-03-16T09:18:38.920Z,84.48
2019-03-16T09:21:05.106Z,84.50
2019-03-16T09:23:31.388Z,84.39
2019-03-16T09:25:57.595Z,84.29
2019-03-16T09:28:24.955Z,84.25
2019-03-16T09:30:51.299Z,84.15
2019-03-16T09:33:17.700Z,84.05
2019-03-16T09:35:44.032Z,83.93
2019-03-16T09:38:10.171Z,83.70
2019-03-16T09:40:36.449Z,83.60
2019-03-16T09:43:02.649Z,83.51
2019-03-16T09:45:28.923Z,83.36
2019-03-16T09:47:55.085Z,83.34
2019-03-16T09:50:21.320Z,83.21
2019-03-16T09:52:47.524Z,83.13
2019-03-16T09:55:13.758Z,83.04
2019-03-16T09:57:40.031Z,82.77
2019-03-16T10:00:10.590Z,82.94
2019-03-16T10:02:36.905Z,82.72
2019-03-16T10:05:04.279Z,82.30
2019-03-16T10:07:30.605Z,81.77
2019-03-16T10:09:56.784Z,81.27
2019-03-16T10:12:23.228Z,80.98
2019-03-16T10:14:49.613Z,80.44
2019-03-16T10:17:15.835Z,80.36
2019-03-16T10:19:42.975Z,79.77
2019-03-16T10:22:09.413Z,79.29
2019-03-16T10:24:35.749Z,77.77
2019-03-16T10:27:02.058Z,77.90
2019-03-16T10:29:28.406Z,77.26
2019-03-16T10:31:54.702Z,77.18
2019-03-16T10:34:21.021Z,77.61
2019-03-16T10:36:47.409Z,77.26
2019-03-16T10:39:13.623Z,76.60
2019-03-16T10:41:39.881Z,76.45
2019-03-16T10:44:06.126Z,76.94
2019-03-16T10:46:32.265Z,76.29
2019-03-16T10:48:58.499Z,76.25
2019-03-16T10:51:27.546Z,76.31
2019-03-16T10:53:53.054Z,75.90
2019-03-16T10:56:19.261Z,76.34
2019-03-16T10:58:56.072Z,76.22
2019-03-16T11:01:14.030Z,76.40
2019-03-16T11:03:40.180Z,76.43
2019-03-16T11:06:06.477Z,76.42
2019-03-16T11:08:32.893Z,77.08
2019-03-16T11:10:59.020Z,76.74
2019-03-16T11:13:25.348Z,77.15
2019-03-16T11:15:51.625Z,75.99
2019-03-16T11:18:17.837Z,76.92
2019-03-16T11:20:44.268Z,76.12
2019-03-16T11:23:10.736Z,76.00
2019-03-16T11:25:36.994Z,76.09
2019-03-16T11:28:03.363Z,75.50
2019-03-16T11:30:29.608Z,74.81
2019-03-16T11:32:55.930Z,75.12
2019-03-16T11:35:22.197Z,74.43
2019-03-16T11:37:49.591Z,73.72
2019-03-16T11:40:17.132Z,74.70
2019-03-16T11:42:45.258Z,74.59
2019-03-16T11:45:11.647Z,73.87
2019-03-16T11:47:38.038Z,74.74
2019-03-16T11:50:07.095Z,74.10
2019-03-16T11:52:33.350Z,74.03
2019-03-16T11:54:59.567Z,73.91
2019-03-16T11:57:26.842Z,73.92
2019-03-16T11:59:53.090Z,74.17
2019-03-16T12:02:19.496Z,73.24
2019-03-16T12:04:45.720Z,72.23
2019-03-16T12:07:11.943Z,71.46
2019-03-16T12:09:38.053Z,72.84
2019-03-16T12:12:04.432Z,72.21
2019-03-16T12:14:30.592Z,72.34
2019-03-16T12:16:56.862Z,71.23
2019-03-16T12:19:23.213Z,71.58
2019-03-16T12:21:49.585Z,70.44
2019-03-16T12:24:15.689Z,71.00
2019-03-16T12:26:41.858Z,70.76
2019-03-16T12:29:08.128Z,70.98
2019-03-16T12:31:34.237Z,70.38
2019-03-16T12:34:00.533Z,69.87
2019-03-16T12:36:26.851Z,69.88
2019-03-16T12:38:53.001Z,69.65
2019-03-16T12:41:19.267Z,69.25
2019-03-16T12:43:45.537Z,69.59
2019-03-16T12:46:12.017Z,68.93
2019-03-16T12:48:38.385Z,68.56
2019-03-16T12:51:04.600Z,68.03
2019-03-16T12:53:30.732Z,67.67
2019-03-16T12:55:56.849Z,67.87
2019-03-16T12:58:22.990Z,67.03
2019-03-16T13:00:49.375Z,67.02
2019-03-16T13:03:15.739Z,66.53
2019-03-16T13:05:41.991Z,67.16
2019-03-16T13:08:08.218Z,66.68
2019-03-16T13:10:34.540Z,66.67
2019-03-16T13:13:00.797Z,67.05
2019-03-16T13:15:27.046Z,67.43
2019-03-16T13:17:53.402Z,67.28
2019-03-16T13:20:19.701Z,67.52
2019-03-16T13:22:46.980Z,67.38
2019-03-16T13:25:13.265Z,66.45
2019-03-16T13:27:39.518Z,66.95
2019-03-16T13:30:09.141Z,66.09
2019-03-16T13:32:35.282Z,67.14
2019-03-16T13:35:01.829Z,66.47
2019-03-16T13:37:28.101Z,66.60
2019-03-16T13:39:54.373Z,67.04
2019-03-16T13:42:20.588Z,66.65
2019-03-16T13:44:46.961Z,66.50
2019-03-16T13:47:13.148Z,68.13
2019-03-16T13:49:39.503Z,67.15
2019-03-16T13:52:06.187Z,67.16
2019-03-16T13:54:32.717Z,66.39
2019-03-16T13:56:59.064Z,67.24
2019-03-16T13:59:25.418Z,67.22
2019-03-16T14:01:51.765Z,66.98
2019-03-16T14:04:17.934Z,66.93
2019-03-16T14:06:45.323Z,66.84
2019-03-16T14:09:11.671Z,65.74
2019-03-16T14:11:37.859Z,66.15
2019-03-16T14:14:04.325Z,65.85
2019-03-16T14:16:30.431Z,66.43
2019-03-16T14:18:56.977Z,65.93
2019-03-16T14:21:23.297Z,66.76
2019-03-16T14:23:49.615Z,66.34
2019-03-16T14:26:15.885Z,66.64
2019-03-16T14:28:42.081Z,66.09
2019-03-16T14:31:08.447Z,66.78
2019-03-16T14:33:34.562Z,67.20
2019-03-16T14:36:01.192Z,67.27
2019-03-16T14:38:27.724Z,66.99
2019-03-16T14:40:54.374Z,67.43
2019-03-16T14:43:20.703Z,67.99
2019-03-16T14:45:49.009Z,67.87
2019-03-16T14:48:15.390Z,66.88
2019-03-16T14:50:41.874Z,66.52
2019-03-16T14:53:08.162Z,67.75
2019-03-16T14:55:34.399Z,67.16
2019-03-16T14:58:00.592Z,66.68
2019-03-16T15:00:37.749Z,66.49
2019-03-16T15:02:55.202Z,66.93
2019-03-16T15:05:22.601Z,65.90
2019-03-16T15:07:50.129Z,65.41
2019-03-16T15:10:17.022Z,65.91
2019-03-16T15:12:43.387Z,65.92
2019-03-16T15:15:11.549Z,66.25
2019-03-16T15:17:38.112Z,65.45
2019-03-16T15:20:07.183Z,64.80
2019-03-16T15:22:34.586Z,64.49
2019-03-16T15:25:01.180Z,64.92
2019-03-16T15:27:27.613Z,64.88
2019-03-16T15:29:53.948Z,64.21
2019-03-16T15:32:20.108Z,63.37
2019-03-16T15:34:46.341Z,63.63
2019-03-16T15:37:12.515Z,63.12
2019-03-16T15:39:38.863Z,63.44
2019-03-16T15:42:05.157Z,62.54
2019-03-16T15:44:31.428Z,63.91
2019-03-16T15:46:57.733Z,62.88
2019-03-16T15:49:24.073Z,63.54
2019-03-16T15:51:50.334Z,63.50
2019-03-16T15:54:16.702Z,64.05
2019-03-16T15:56:42.939Z,63.39
2019-03-16T15:59:09.109Z,63.67
2019-03-16T16:01:35.518Z,64.14
2019-03-16T16:04:01.897Z,63.09
2019-03-16T16:06:28.235Z,63.33
2019-03-16T16:08:54.464Z,63.19
2019-03-16T16:11:20.787Z,63.49
2019-03-16T16:13:47.101Z,64.88
2019-03-16T16:16:13.447Z,63.50
2019-03-16T16:18:39.760Z,62.20
2019-03-16T16:21:06.065Z,62.16
2019-03-16T16:23:32.327Z,62.48
2019-03-16T16:25:58.732Z,62.12
2019-03-16T16:28:24.996Z,61.58
2019-03-16T16:30:51.385Z,61.52
2019-03-16T16:33:18.880Z,61.36
2019-03-16T16:35:45.196Z,61.54
2019-03-16T16:38:11.544Z,62.15
2019-03-16T16:40:37.888Z,62.56
2019-03-16T16:43:04.246Z,62.14
2019-03-16T16:45:30.423Z,62.13
2019-03-16T16:47:56.771Z,61.84
2019-03-16T16:50:24.083Z,62.21
2019-03-16T16:52:52.137Z,62.47
2019-03-16T16:55:18.476Z,62.25
2019-03-16T16:57:44.920Z,62.95
2019-03-16T17:00:19.751Z,62.25
2019-03-16T17:02:46.118Z,62.29
2019-03-16T17:05:13.602Z,62.70
2019-03-16T17:07:39.893Z,62.39
2019-03-16T17:10:12.413Z,62.07
2019-03-16T17:12:38.770Z,62.23
2019-03-16T17:15:08.093Z,62.03
2019-03-16T17:17:35.664Z,63.32
2019-03-16T17:20:06.166Z,62.98
2019-03-16T17:22:32.554Z,61.79
2019-03-16T17:24:58.861Z,62.06
2019-03-16T17:27:26.029Z,62.25
2019-03-16T17:29:52.411Z,61.62
2019-03-16T17:32:18.799Z,61.54
2019-03-16T17:34:44.984Z,61.68
2019-03-16T17:37:11.305Z,62.30
2019-03-16T17:39:37.625Z,61.85
2019-03-16T17:42:04.156Z,61.74
2019-03-16T17:44:30.482Z,60.86
2019-03-16T17:46:56.634Z,61.50
2019-03-16T17:49:22.808Z,61.09
2019-03-16T17:51:49.077Z,61.07
2019-03-16T17:54:15.494Z,60.59
2019-03-16T17:56:41.806Z,60.90
2019-03-16T17:59:08.129Z,61.11
2019-03-16T18:01:34.398Z,60.72
2019-03-16T18:04:00.746Z,60.43
2019-03-16T18:06:28.176Z,60.44
2019-03-16T18:08:54.491Z,61.46
2019-03-16T18:11:20.706Z,60.80
2019-03-16T18:13:47.041Z,60.94
2019-03-16T18:16:13.404Z,60.74
2019-03-16T18:18:39.585Z,61.22
2019-03-16T18:21:05.845Z,60.77
2019-03-16T18:23:32.202Z,61.00
2019-03-16T18:25:58.693Z,60.37
2019-03-16T18:28:25.108Z,60.55
2019-03-16T18:30:54.330Z,60.94
2019-03-16T18:35:54.627Z,60.29
2019-03-16T18:38:21.021Z,60.70
2019-03-16T18:40:47.269Z,59.62
2019-03-16T18:43:13.487Z,60.08
2019-03-16T18:45:39.751Z,59.80
2019-03-16T18:48:06.066Z,59.89
2019-03-16T18:50:32.540Z,60.57
2019-03-16T18:52:59.035Z,59.99
2019-03-16T18:55:25.161Z,59.58
2019-03-16T18:57:51.499Z,59.49
2019-03-16T19:00:18.241Z,59.85
2019-03-16T19:02:44.685Z,59.07
2019-03-16T19:05:11.182Z,59.95
2019-03-16T19:07:37.579Z,59.25
2019-03-16T19:10:09.542Z,59.11
2019-03-16T19:12:35.978Z,58.34
2019-03-16T19:15:04.018Z,59.40
2019-03-16T19:17:30.311Z,58.65
2019-03-16T19:19:56.531Z,59.09
2019-03-16T19:22:22.889Z,58.87
2019-03-16T19:24:49.187Z,58.82
2019-03-16T19:27:18.782Z,58.79
2019-03-16T19:29:43.704Z,59.56
2019-03-16T19:32:10.052Z,58.64
2019-03-16T19:34:36.263Z,59.26
2019-03-16T19:37:02.718Z,59.54
2019-03-16T19:39:30.994Z,60.38
2019-03-16T19:41:57.288Z,59.10
2019-03-16T19:44:23.477Z,59.52
2019-03-16T19:46:49.814Z,59.57
2019-03-16T19:49:16.048Z,59.07
2019-03-16T19:51:42.288Z,59.92
2019-03-16T19:54:08.641Z,59.47
2019-03-16T19:56:34.793Z,58.95
2019-03-16T19:59:01.199Z,58.72
2019-03-16T20:01:27.486Z,59.06
2019-03-16T20:03:53.810Z,58.67
2019-03-16T20:06:25.583Z,59.56
2019-03-16T20:08:48.247Z,59.25
2019-03-16T20:11:14.426Z,58.97
2019-03-16T20:13:40.859Z,59.59
2019-03-16T20:16:07.100Z,59.68
2019-03-16T20:18:33.344Z,60.10
2019-03-16T20:20:59.577Z,59.79
2019-03-16T20:23:25.854Z,60.09
2019-03-16T20:25:52.109Z,60.46
2019-03-16T20:28:18.309Z,59.86
2019-03-16T20:30:44.544Z,59.87
2019-03-16T20:33:10.669Z,60.11
2019-03-16T20:35:36.969Z,59.96
2019-03-16T20:38:03.405Z,60.10
2019-03-16T20:40:29.530Z,59.73
2019-03-16T20:42:55.749Z,60.44
2019-03-16T20:45:22.395Z,60.48
2019-03-16T20:47:48.489Z,60.12
2019-03-16T20:50:18.731Z,60.42
2019-03-16T20:52:45.070Z,60.17
2019-03-16T20:55:11.506Z,61.28
2019-03-16T20:57:37.738Z,60.87
2019-03-16T21:00:19.592Z,60.72
2019-03-16T21:02:45.912Z,60.54
2019-03-16T21:05:12.679Z,60.63
2019-03-16T21:07:39.028Z,60.66
2019-03-16T21:10:08.473Z,60.84
2019-03-16T21:12:34.674Z,60.42
2019-03-16T21:15:01.148Z,60.64
2019-03-16T21:17:27.450Z,61.41
2019-03-16T21:19:53.659Z,60.82
2019-03-16T21:22:20.007Z,61.06
2019-03-16T21:24:46.213Z,61.02
2019-03-16T21:27:12.524Z,60.92
2019-03-16T21:29:39.940Z,61.32
2019-03-16T21:32:06.395Z,61.23
2019-03-16T21:34:33.489Z,60.49
2019-03-16T21:36:59.878Z,61.40
2019-03-16T21:39:26.055Z,61.15
2019-03-16T21:41:52.390Z,60.82
2019-03-16T21:44:18.844Z,60.66
2019-03-16T21:46:45.176Z,60.28
2019-03-16T21:49:11.411Z,60.56
2019-03-16T21:51:37.767Z,60.37
2019-03-16T21:54:04.093Z,60.69
2019-03-16T21:56:30.387Z,60.17
2019-03-16T21:58:56.602Z,60.27
2019-03-16T22:01:22.826Z,60.06
2019-03-16T22:03:48.933Z,60.82
2019-03-16T22:06:15.156Z,60.54
2019-03-16T22:08:41.850Z,60.25
2019-03-16T22:11:08.152Z,60.17
2019-03-16T22:13:34.273Z,60.91
2019-03-16T22:16:00.516Z,60.67
2019-03-16T22:18:26.737Z,60.66
2019-03-16T22:20:52.916Z,60.89
2019-03-16T22:23:19.065Z,60.16
2019-03-16T22:25:45.385Z,60.22
2019-03-16T22:28:11.596Z,61.06
2019-03-16T22:30:37.912Z,60.53
2019-03-16T22:33:04.180Z,60.69
2019-03-16T22:35:30.424Z,60.22
2019-03-16T22:37:57.851Z,60.60
2019-03-16T22:40:23.921Z,60.94
2019-03-16T22:42:50.171Z,60.82
2019-03-16T22:45:16.466Z,60.84
2019-03-16T22:47:42.730Z,60.45
2019-03-16T22:50:13.488Z,60.87
2019-03-16T22:52:39.929Z,61.28
2019-03-16T22:55:06.216Z,60.57
2019-03-16T22:57:32.923Z,60.40
2019-03-16T22:59:59.091Z,60.77
2019-03-16T23:02:25.441Z,60.93
2019-03-16T23:04:51.515Z,60.49
2019-03-16T23:07:17.814Z,60.25
2019-03-16T23:09:43.972Z,60.65
2019-03-16T23:12:10.088Z,60.67
2019-03-16T23:14:36.319Z,59.86
2019-03-16T23:17:02.654Z,60.25
2019-03-16T23:19:28.858Z,59.82
2019-03-16T23:21:55.002Z,60.52
2019-03-16T23:24:21.476Z,59.88
2019-03-16T23:26:47.799Z,59.99
2019-03-16T23:29:14.084Z,60.07
2019-03-16T23:31:40.565Z,60.05
2019-03-16T23:34:18.738Z,59.89
2019-03-16T23:36:35.479Z,60.62
2019-03-16T23:39:03.862Z,60.30
2019-03-16T23:41:30.345Z,60.47
2019-03-16T23:43:56.496Z,60.75
2019-03-16T23:46:22.797Z,60.62
2019-03-16T23:48:48.940Z,60.28
2019-03-16T23:51:15.159Z,60.68
2019-03-16T23:53:41.474Z,60.26
2019-03-16T23:56:07.673Z,60.15
2019-03-16T23:58:33.990Z,60.27
